Saint Petersburg, Florida
Current Conditions -  °F | °C
As of 11:53 AM on Friday 24 Oct 2014 (Local Time) from KSPG Reporting Station
Clear Clear  
Wind Chill: 24°   Ceiling: Unl
Heat Index: 24°   Visibility: 10mi
Dew Point: 16°   Wind: 13mph
Humidity: 60%   Direction: 40°NE
Pressure: 29.98"   Gusts: NA
Location:  27.77°N, 82.63°W
Report Text: KSPG 241553Z 04011KT 10SM CLR 24/16 A2998 RMK AO2 SLP153 T02390156
Loading
Personal Weather Stations






























Interactive Weather Map New forecast layout! Learn more

10-Day Weather Forecast

Advertisements
Track Severe Weather on mobile